createdAt,value
2023-02-19T00:01:48.207Z,99.90
2023-02-19T00:04:22.493Z,99.90
2023-02-19T00:06:50.377Z,99.90
2023-02-19T00:09:19.425Z,99.90
2023-02-19T00:11:47.944Z,99.90
2023-02-19T00:14:20.813Z,99.90
2023-02-19T00:16:49.730Z,99.90
2023-02-19T00:19:19.544Z,99.90
2023-02-19T00:21:47.877Z,99.90
2023-02-19T00:24:16.169Z,99.90
2023-02-19T00:26:45.345Z,99.90
2023-02-19T00:29:18.842Z,99.90
2023-02-19T00:31:46.526Z,99.90
2023-02-19T00:34:14.366Z,99.90
2023-02-19T00:36:42.678Z,99.90
2023-02-19T00:39:15.650Z,99.90
2023-02-19T00:41:43.828Z,99.90
2023-02-19T00:44:13.208Z,99.90
2023-02-19T00:46:42.993Z,99.90
2023-02-19T00:49:18.711Z,99.90
2023-02-19T00:51:46.582Z,99.90
2023-02-19T00:54:14.374Z,99.90
2023-02-19T00:56:41.889Z,99.90
2023-02-19T00:59:09.427Z,99.90
2023-02-19T01:01:36.746Z,99.90
2023-02-19T01:04:06.495Z,99.90
2023-02-19T01:06:34.833Z,99.90
2023-02-19T01:09:02.407Z,99.90
2023-02-19T01:11:29.869Z,99.90
2023-02-19T01:14:01.208Z,99.90
2023-02-19T01:16:28.624Z,99.90
2023-02-19T01:18:57.636Z,99.90
2023-02-19T01:21:27.339Z,99.90
2023-02-19T01:23:55.454Z,99.90
2023-02-19T01:26:26.057Z,99.90
2023-02-19T01:28:53.391Z,99.90
2023-02-19T01:31:23.038Z,99.90
2023-02-19T01:33:55.807Z,99.90
2023-02-19T01:36:23.370Z,99.90
2023-02-19T01:38:50.884Z,99.90
2023-02-19T01:41:21.527Z,99.90
2023-02-19T01:44:02.318Z,99.90
2023-02-19T01:46:34.449Z,99.90
2023-02-19T01:49:14.165Z,99.90
2023-02-19T01:51:59.236Z,99.90
2023-02-19T01:54:31.219Z,99.90
2023-02-19T01:56:59.769Z,99.90
2023-02-19T01:59:27.028Z,99.90
2023-02-19T02:01:54.275Z,99.90
2023-02-19T02:04:21.525Z,99.90
2023-02-19T02:06:55.089Z,99.90
2023-02-19T02:09:44.253Z,99.90
2023-02-19T02:12:12.955Z,99.90
2023-02-19T02:14:44.216Z,99.90
2023-02-19T02:17:51.625Z,99.90
2023-02-19T02:20:27.879Z,99.90
2023-02-19T02:23:15.684Z,99.90
2023-02-19T02:25:56.813Z,99.90
2023-02-19T02:28:59.406Z,99.90
2023-02-19T02:31:34.091Z,99.90
2023-02-19T02:34:19.282Z,99.90
2023-02-19T02:36:50.327Z,99.90
2023-02-19T02:39:22.045Z,99.90
2023-02-19T02:42:18.240Z,99.90
2023-02-19T02:45:06.053Z,99.90
2023-02-19T02:47:41.419Z,99.90
2023-02-19T02:50:18.105Z,99.90
2023-02-19T02:53:07.072Z,99.90
2023-02-19T02:55:41.709Z,99.90
2023-02-19T02:58:09.892Z,99.90
2023-02-19T03:00:58.730Z,99.90
2023-02-19T03:03:28.534Z,99.90
2023-02-19T03:06:03.330Z,99.90
2023-02-19T03:08:42.669Z,99.90
2023-02-19T03:11:31.078Z,99.90
2023-02-19T03:14:31.766Z,99.90
2023-02-19T03:17:46.938Z,99.90
2023-02-19T03:20:18.316Z,99.90
2023-02-19T03:22:48.643Z,99.90
2023-02-19T03:25:39.920Z,99.90
2023-02-19T03:28:12.799Z,99.90
2023-02-19T03:30:50.600Z,99.90
2023-02-19T03:33:18.800Z,99.90
2023-02-19T03:36:00.421Z,99.90
2023-02-19T03:38:41.052Z,99.90
2023-02-19T03:41:16.333Z,99.90
2023-02-19T03:44:02.536Z,99.90
2023-02-19T03:46:53.131Z,99.90
2023-02-19T03:49:41.918Z,99.90
2023-02-19T03:52:18.105Z,99.90
2023-02-19T03:55:16.889Z,99.90
2023-02-19T03:57:56.021Z,99.90
2023-02-19T04:00:49.984Z,99.90
2023-02-19T04:03:29.373Z,99.90
2023-02-19T04:06:02.670Z,99.90
2023-02-19T04:08:31.766Z,99.90
2023-02-19T04:11:00.313Z,99.90
2023-02-19T04:13:41.046Z,99.90
2023-02-19T04:16:13.084Z,99.90
2023-02-19T04:18:44.089Z,99.90
2023-02-19T04:21:11.985Z,99.90
2023-02-19T04:23:43.187Z,99.90
2023-02-19T04:26:12.204Z,99.90
2023-02-19T04:28:40.407Z,99.90
2023-02-19T04:31:07.803Z,99.90
2023-02-19T04:33:35.286Z,99.90
2023-02-19T04:36:02.577Z,99.90
2023-02-19T04:38:29.763Z,99.90
2023-02-19T04:40:57.272Z,99.90
2023-02-19T04:43:24.540Z,99.90
2023-02-19T04:45:51.806Z,99.90
2023-02-19T04:48:19.026Z,99.90
2023-02-19T04:50:46.276Z,99.90
2023-02-19T04:53:13.642Z,99.90
2023-02-19T04:55:40.919Z,99.90
2023-02-19T04:58:08.131Z,99.90
2023-02-19T05:00:35.340Z,99.90
2023-02-19T05:03:02.604Z,99.90
2023-02-19T05:05:30.074Z,99.90
2023-02-19T05:08:00.473Z,99.90
2023-02-19T05:10:27.644Z,99.90
2023-02-19T05:12:57.890Z,99.90
2023-02-19T05:15:25.391Z,99.90
2023-02-19T05:17:52.641Z,99.90
2023-02-19T05:20:20.090Z,99.90
2023-02-19T05:22:47.395Z,99.90
2023-02-19T05:25:14.774Z,99.90
2023-02-19T05:27:44.829Z,99.90
2023-02-19T05:30:12.729Z,99.90
2023-02-19T05:32:39.933Z,99.90
2023-02-19T05:35:07.476Z,99.90
2023-02-19T05:37:34.704Z,99.90
2023-02-19T05:40:02.137Z,99.90
2023-02-19T05:42:29.371Z,99.90
2023-02-19T05:44:56.665Z,99.90
2023-02-19T05:47:23.838Z,99.90
2023-02-19T05:49:51.057Z,99.90
2023-02-19T05:52:18.180Z,99.90
2023-02-19T05:54:45.456Z,99.90
2023-02-19T05:57:12.851Z,99.90
2023-02-19T05:59:40.096Z,99.90
2023-02-19T06:02:07.322Z,99.90
2023-02-19T06:04:34.607Z,99.90
2023-02-19T06:07:01.891Z,99.90
2023-02-19T06:09:29.050Z,99.90
2023-02-19T06:11:56.252Z,99.90
2023-02-19T06:14:23.558Z,99.90
2023-02-19T06:16:50.753Z,99.90
2023-02-19T06:19:18.089Z,99.90
2023-02-19T06:21:45.442Z,99.90
2023-02-19T06:24:12.680Z,99.90
2023-02-19T06:26:40.024Z,99.90
2023-02-19T06:29:07.424Z,99.90
2023-02-19T06:31:34.812Z,99.90
2023-02-19T06:34:05.674Z,99.90
2023-02-19T06:36:33.132Z,99.90
2023-02-19T06:39:01.347Z,99.90
2023-02-19T06:41:28.841Z,99.90
2023-02-19T06:44:00.410Z,99.90
2023-02-19T06:46:27.642Z,99.90
2023-02-19T06:48:56.090Z,99.90
2023-02-19T06:51:24.451Z,99.90
2023-02-19T06:53:51.630Z,99.90
2023-02-19T06:56:26.841Z,99.90
2023-02-19T06:58:55.553Z,99.90
2023-02-19T07:01:23.980Z,99.90
2023-02-19T07:03:52.846Z,99.90
2023-02-19T07:06:21.825Z,99.90
2023-02-19T07:08:49.503Z,99.90
2023-02-19T07:11:17.280Z,99.90
2023-02-19T07:13:45.285Z,99.90
2023-02-19T07:16:13.584Z,99.90
2023-02-19T07:18:41.420Z,99.90
2023-02-19T07:21:14.135Z,99.90
2023-02-19T07:23:42.239Z,99.90
2023-02-19T07:26:11.681Z,99.90
2023-02-19T07:28:43.431Z,99.90
2023-02-19T07:31:11.369Z,99.90
2023-02-19T07:33:38.981Z,99.90
2023-02-19T07:36:08.156Z,99.90
2023-02-19T07:38:35.434Z,99.90
2023-02-19T07:41:04.450Z,99.90
2023-02-19T07:43:34.053Z,99.90
2023-02-19T07:46:10.101Z,99.90
2023-02-19T07:48:38.043Z,99.90
2023-02-19T07:51:07.136Z,99.90
2023-02-19T07:53:35.525Z,99.90
2023-02-19T07:56:08.167Z,99.90
2023-02-19T07:58:35.796Z,99.90
2023-02-19T08:01:16.431Z,99.90
2023-02-19T08:03:43.940Z,99.90
2023-02-19T08:06:11.992Z,99.90
2023-02-19T08:08:40.341Z,99.90
2023-02-19T08:11:26.542Z,99.90
2023-02-19T08:13:54.293Z,99.90
2023-02-19T08:16:33.503Z,99.90
2023-02-19T08:19:08.220Z,99.90
2023-02-19T08:21:35.397Z,99.90
2023-02-19T08:24:02.625Z,99.90
2023-02-19T08:26:29.796Z,99.90
2023-02-19T08:28:57.038Z,99.90
2023-02-19T08:31:24.312Z,99.90
2023-02-19T08:33:51.604Z,99.90
2023-02-19T08:36:19.135Z,99.90
2023-02-19T08:38:46.427Z,99.90
2023-02-19T08:41:14.839Z,99.90
2023-02-19T08:43:42.962Z,99.90
2023-02-19T08:46:11.714Z,99.90
2023-02-19T08:48:39.709Z,99.90
2023-02-19T08:51:10.267Z,99.90
2023-02-19T08:53:38.623Z,98.80
2023-02-19T08:56:14.332Z,98.80
2023-02-19T08:58:41.916Z,98.20
2023-02-19T09:01:13.266Z,97.80
2023-02-19T09:03:41.501Z,97.20
2023-02-19T09:06:13.539Z,97.80
2023-02-19T09:08:40.711Z,97.60
2023-02-19T09:11:07.927Z,97.70
2023-02-19T09:13:35.152Z,98.00
2023-02-19T09:16:04.488Z,97.80
2023-02-19T09:18:32.999Z,97.40
2023-02-19T09:21:02.005Z,96.90
2023-02-19T09:23:29.472Z,96.40
2023-02-19T09:26:00.896Z,96.20
2023-02-19T09:28:28.652Z,96.10
2023-02-19T09:30:56.236Z,95.60
2023-02-19T09:33:23.536Z,94.80
2023-02-19T09:35:50.730Z,94.00
2023-02-19T09:38:17.961Z,93.90
2023-02-19T09:40:45.391Z,93.70
2023-02-19T09:43:18.980Z,92.80
2023-02-19T09:45:46.880Z,95.20
2023-02-19T09:48:14.076Z,91.90
2023-02-19T09:50:48.042Z,91.40
2023-02-19T09:53:26.634Z,91.20
2023-02-19T09:55:54.434Z,90.80
2023-02-19T09:58:21.635Z,92.30
2023-02-19T10:00:51.193Z,90.90
2023-02-19T10:03:41.586Z,90.70
2023-02-19T10:06:14.590Z,89.50
2023-02-19T10:08:42.744Z,89.30
2023-02-19T10:11:13.806Z,88.30
2023-02-19T10:13:48.243Z,87.60
2023-02-19T10:16:24.020Z,87.70
2023-02-19T10:18:51.398Z,87.50
2023-02-19T10:21:24.909Z,87.70
2023-02-19T10:23:56.685Z,86.20
2023-02-19T10:26:24.437Z,83.60
2023-02-19T10:28:51.812Z,82.40
2023-02-19T10:31:21.823Z,80.80
2023-02-19T10:33:53.379Z,78.90
2023-02-19T10:36:40.293Z,77.70
2023-02-19T10:39:22.966Z,76.90
2023-02-19T10:41:51.593Z,77.10
2023-02-19T10:44:23.405Z,76.40
2023-02-19T10:46:55.540Z,74.60
2023-02-19T10:49:30.991Z,74.40
2023-02-19T10:52:02.762Z,73.80
2023-02-19T10:54:33.158Z,72.20
2023-02-19T10:57:18.660Z,71.40
2023-02-19T10:59:53.233Z,69.80
2023-02-19T11:02:22.027Z,69.10
2023-02-19T11:05:23.655Z,69.10
2023-02-19T11:07:57.570Z,68.10
2023-02-19T11:10:39.753Z,67.70
2023-02-19T11:13:14.501Z,68.50
2023-02-19T11:15:43.378Z,59.00
2023-02-19T11:18:13.836Z,52.80
2023-02-19T11:20:57.755Z,52.50
2023-02-19T11:23:31.007Z,51.40
2023-02-19T11:26:02.836Z,52.10
2023-02-19T11:28:39.328Z,49.00
2023-02-19T11:31:27.168Z,46.00
2023-02-19T11:34:21.091Z,46.50
2023-02-19T11:37:13.495Z,45.20
2023-02-19T11:39:59.265Z,45.80
2023-02-19T11:43:07.543Z,49.90
2023-02-19T11:45:43.823Z,51.30
2023-02-19T11:48:23.260Z,52.90
2023-02-19T11:51:10.109Z,52.70
2023-02-19T11:53:48.084Z,53.60
2023-02-19T11:56:24.997Z,54.40
2023-02-19T11:59:00.757Z,54.00
2023-02-19T12:01:52.270Z,53.00
2023-02-19T12:04:46.757Z,53.10
2023-02-19T12:07:32.115Z,52.40
2023-02-19T12:10:17.501Z,52.40
2023-02-19T12:13:19.687Z,51.70
2023-02-19T12:15:59.196Z,51.90
2023-02-19T12:18:26.322Z,51.40
2023-02-19T12:21:28.782Z,52.40
2023-02-19T12:24:37.626Z,52.00
2023-02-19T12:27:26.290Z,50.30
2023-02-19T12:30:36.420Z,46.70
2023-02-19T12:33:18.676Z,44.30
2023-02-19T12:36:25.079Z,45.70
2023-02-19T12:38:58.307Z,46.90
2023-02-19T12:41:56.289Z,48.40
2023-02-19T12:44:36.360Z,47.70
2023-02-19T12:47:07.059Z,43.80
2023-02-19T12:49:39.435Z,42.00
2023-02-19T12:52:22.416Z,42.00
2023-02-19T12:54:55.916Z,40.00
2023-02-19T12:57:37.025Z,38.50
2023-02-19T13:00:26.974Z,40.20
2023-02-19T13:03:00.414Z,42.10
2023-02-19T13:05:46.775Z,43.50
2023-02-19T13:08:36.587Z,46.40
2023-02-19T13:11:22.622Z,48.80
2023-02-19T13:14:21.804Z,47.90
2023-02-19T13:16:53.936Z,44.60
2023-02-19T13:19:24.224Z,42.40
2023-02-19T13:22:25.905Z,44.10
2023-02-19T13:24:56.676Z,46.30
2023-02-19T13:30:24.348Z,46.30
2023-02-19T13:33:09.484Z,42.90
2023-02-19T13:35:58.170Z,42.70
2023-02-19T13:38:25.769Z,39.80
2023-02-19T13:41:00.840Z,38.90
2023-02-19T13:43:39.030Z,39.10
2023-02-19T13:46:09.978Z,40.40
2023-02-19T13:48:42.005Z,40.50
2023-02-19T13:51:19.039Z,40.50
2023-02-19T13:53:46.229Z,44.00
2023-02-19T13:56:34.205Z,46.50
2023-02-19T13:59:23.202Z,45.60
2023-02-19T14:01:53.213Z,47.20
2023-02-19T14:04:22.865Z,47.00
2023-02-19T14:07:05.561Z,46.60
2023-02-19T14:09:41.356Z,47.20
2023-02-19T14:12:11.586Z,46.70
2023-02-19T14:14:46.134Z,46.20
2023-02-19T14:17:44.210Z,42.50
2023-02-19T14:20:17.659Z,41.40
2023-02-19T14:22:50.792Z,40.80
2023-02-19T14:25:40.225Z,40.10
2023-02-19T14:28:10.482Z,39.90
2023-02-19T14:30:43.907Z,39.50
2023-02-19T14:33:11.598Z,39.80
2023-02-19T14:35:42.673Z,40.40
2023-02-19T14:38:24.993Z,40.10
2023-02-19T14:40:53.835Z,40.10
2023-02-19T14:43:27.434Z,40.20
2023-02-19T14:46:01.787Z,41.90
2023-02-19T14:48:40.046Z,45.20
2023-02-19T14:51:15.136Z,46.00
2023-02-19T14:53:45.259Z,43.30
2023-02-19T14:56:22.862Z,42.50
2023-02-19T14:59:32.869Z,42.40
2023-02-19T15:02:14.107Z,41.10
2023-02-19T15:04:46.145Z,41.10
2023-02-19T15:07:21.932Z,41.80
2023-02-19T15:09:53.174Z,41.90
2023-02-19T15:12:30.686Z,43.00
2023-02-19T15:15:01.564Z,43.20
2023-02-19T15:17:39.391Z,45.00
2023-02-19T15:20:12.253Z,45.10
2023-02-19T15:22:44.452Z,45.80
2023-02-19T15:25:20.479Z,43.70
2023-02-19T15:27:48.154Z,43.50
2023-02-19T15:30:28.568Z,44.40
2023-02-19T15:32:58.043Z,45.60
2023-02-19T15:35:27.465Z,47.60
2023-02-19T15:37:55.850Z,50.00
2023-02-19T15:40:30.709Z,51.00
2023-02-19T15:43:00.451Z,52.20
2023-02-19T15:45:48.367Z,53.10
2023-02-19T15:48:25.816Z,54.60
2023-02-19T15:51:11.386Z,54.70
2023-02-19T15:53:53.621Z,55.30
2023-02-19T15:56:30.878Z,56.00
2023-02-19T15:59:19.050Z,55.60
2023-02-19T16:01:46.569Z,55.40
2023-02-19T16:04:17.120Z,54.70
2023-02-19T16:06:59.139Z,55.30
2023-02-19T16:09:36.059Z,55.50
2023-02-19T16:12:18.856Z,55.90
2023-02-19T16:14:46.104Z,55.80
2023-02-19T16:17:28.124Z,56.70
2023-02-19T16:20:01.957Z,56.60
2023-02-19T16:22:32.763Z,56.70
2023-02-19T16:25:06.107Z,57.20
2023-02-19T16:27:41.916Z,56.90
2023-02-19T16:30:25.615Z,57.30
2023-02-19T16:33:21.429Z,57.40
2023-02-19T16:35:49.824Z,57.90
2023-02-19T16:38:18.340Z,58.80
2023-02-19T16:40:51.015Z,59.90
2023-02-19T16:43:30.852Z,59.30
2023-02-19T16:45:59.693Z,59.00
2023-02-19T16:48:27.241Z,59.30
2023-02-19T16:50:54.526Z,59.50
2023-02-19T16:53:26.187Z,59.70
2023-02-19T16:55:55.727Z,60.10
2023-02-19T16:58:26.745Z,60.00
2023-02-19T17:00:54.091Z,60.30
2023-02-19T17:03:28.191Z,60.50
2023-02-19T17:05:56.887Z,61.10
2023-02-19T17:08:37.330Z,60.70
2023-02-19T17:11:07.366Z,59.80
2023-02-19T17:13:34.613Z,59.00
2023-02-19T17:16:02.539Z,60.50
2023-02-19T17:18:30.126Z,61.70
2023-02-19T17:21:15.522Z,61.30
2023-02-19T17:23:43.022Z,61.60
2023-02-19T17:26:15.411Z,62.60
2023-02-19T17:28:42.721Z,61.60
2023-02-19T17:31:11.609Z,61.00
2023-02-19T17:33:39.691Z,61.50
2023-02-19T17:36:10.343Z,61.40
2023-02-19T17:38:37.466Z,61.70
2023-02-19T17:41:04.813Z,61.20
2023-02-19T17:43:32.148Z,61.90
2023-02-19T17:45:59.494Z,62.70
2023-02-19T17:48:26.915Z,63.10
2023-02-19T17:50:54.098Z,63.60
2023-02-19T17:53:21.408Z,64.40
2023-02-19T17:55:48.738Z,64.70
2023-02-19T17:58:16.025Z,65.80
2023-02-19T18:00:43.271Z,65.20
2023-02-19T18:03:11.356Z,66.30
2023-02-19T18:05:38.681Z,66.90
2023-02-19T18:08:06.037Z,66.90
2023-02-19T18:10:33.416Z,67.20
2023-02-19T18:13:00.716Z,66.50
2023-02-19T18:15:28.350Z,66.00
2023-02-19T18:17:57.036Z,65.20
2023-02-19T18:20:29.195Z,66.20
2023-02-19T18:22:56.880Z,66.40
2023-02-19T18:25:27.339Z,66.40
2023-02-19T18:27:55.068Z,65.70
2023-02-19T18:30:27.376Z,66.50
2023-02-19T18:32:58.397Z,67.10
2023-02-19T18:35:25.701Z,67.10
2023-02-19T18:37:54.064Z,66.20
2023-02-19T18:40:22.676Z,66.10
2023-02-19T18:42:49.926Z,65.90
2023-02-19T18:45:17.293Z,65.00
2023-02-19T18:47:48.125Z,64.80
2023-02-19T18:50:16.607Z,64.60
2023-02-19T18:52:44.161Z,64.80
2023-02-19T18:55:12.051Z,65.80
2023-02-19T18:57:39.320Z,66.10
2023-02-19T19:00:10.453Z,66.40
2023-02-19T19:02:48.649Z,67.60
2023-02-19T19:05:23.564Z,67.10
2023-02-19T19:07:54.411Z,67.40
2023-02-19T19:10:22.779Z,69.60
2023-02-19T19:12:50.281Z,71.40
2023-02-19T19:15:18.960Z,72.70
2023-02-19T19:17:47.411Z,74.10
2023-02-19T19:20:19.656Z,76.20
2023-02-19T19:22:49.959Z,75.00
2023-02-19T19:25:17.490Z,75.30
2023-02-19T19:27:45.396Z,74.00
2023-02-19T19:30:13.350Z,74.10
2023-02-19T19:32:40.760Z,74.80
2023-02-19T19:35:08.655Z,75.50
2023-02-19T19:37:35.923Z,76.10
2023-02-19T19:40:04.202Z,74.50
2023-02-19T19:42:31.483Z,73.90
2023-02-19T19:44:58.744Z,74.90
2023-02-19T19:47:26.035Z,75.40
2023-02-19T19:49:53.188Z,76.30
2023-02-19T19:52:20.531Z,76.50
2023-02-19T19:54:47.862Z,75.30
2023-02-19T19:57:16.442Z,76.00
2023-02-19T19:59:43.811Z,77.00
2023-02-19T20:02:12.294Z,77.40
2023-02-19T20:04:39.575Z,77.00
2023-02-19T20:07:06.844Z,77.20
2023-02-19T20:09:34.310Z,78.00
2023-02-19T20:12:02.331Z,77.60
2023-02-19T20:14:29.580Z,78.30
2023-02-19T20:16:56.882Z,78.20
2023-02-19T20:19:24.301Z,80.40
2023-02-19T20:21:53.499Z,80.50
2023-02-19T20:24:26.146Z,80.50
2023-02-19T20:26:58.732Z,80.50
2023-02-19T20:29:32.316Z,81.60
2023-02-19T20:32:00.753Z,80.50
2023-02-19T20:34:28.519Z,80.70
2023-02-19T20:36:57.103Z,79.00
2023-02-19T20:39:29.044Z,76.50
2023-02-19T20:41:57.634Z,74.20
2023-02-19T20:44:27.382Z,75.00
2023-02-19T20:46:55.369Z,77.10
2023-02-19T20:49:25.238Z,78.50
2023-02-19T20:52:01.350Z,77.00
2023-02-19T20:54:30.906Z,75.50
2023-02-19T20:57:01.210Z,77.40
2023-02-19T20:59:34.369Z,78.00
2023-02-19T21:02:04.129Z,79.60
2023-02-19T21:04:31.552Z,81.20
2023-02-19T21:06:59.596Z,82.70
2023-02-19T21:09:26.909Z,82.40
2023-02-19T21:11:54.173Z,83.00
2023-02-19T21:14:21.612Z,83.20
2023-02-19T21:16:48.810Z,83.60
2023-02-19T21:19:16.901Z,83.40
2023-02-19T21:21:44.109Z,79.10
2023-02-19T21:24:14.240Z,76.10
2023-02-19T21:26:42.420Z,75.60
2023-02-19T21:29:11.736Z,75.00
2023-02-19T21:31:44.630Z,74.70
2023-02-19T21:34:14.395Z,75.00
2023-02-19T21:36:41.815Z,72.60
2023-02-19T21:39:10.054Z,74.00
2023-02-19T21:41:37.443Z,77.60
2023-02-19T21:44:04.775Z,79.30
2023-02-19T21:46:35.221Z,79.70
2023-02-19T21:49:03.941Z,78.90
2023-02-19T21:51:36.784Z,76.90
2023-02-19T21:54:05.829Z,75.30
2023-02-19T21:56:37.065Z,75.20
2023-02-19T21:59:04.990Z,75.60
2023-02-19T22:01:34.854Z,76.60
2023-02-19T22:04:02.312Z,79.30
2023-02-19T22:06:31.045Z,81.90
2023-02-19T22:08:59.413Z,84.40
2023-02-19T22:11:27.236Z,83.20
2023-02-19T22:13:54.515Z,84.20
2023-02-19T22:16:22.154Z,84.50
2023-02-19T22:18:51.388Z,84.00
2023-02-19T22:21:19.652Z,85.40
2023-02-19T22:23:48.605Z,87.20
2023-02-19T22:26:24.943Z,88.60
2023-02-19T22:28:52.935Z,90.20
2023-02-19T22:31:22.535Z,90.90
2023-02-19T22:33:50.394Z,91.60
2023-02-19T22:36:23.860Z,91.90
2023-02-19T22:38:51.525Z,92.20
2023-02-19T22:41:20.482Z,92.60
2023-02-19T22:43:48.651Z,93.20
2023-02-19T22:46:21.452Z,93.60
2023-02-19T22:48:49.120Z,94.30
2023-02-19T22:51:19.248Z,94.90
2023-02-19T22:53:48.851Z,96.00
2023-02-19T22:56:17.678Z,97.10
2023-02-19T22:58:45.308Z,98.10
2023-02-19T23:01:14.090Z,98.70
2023-02-19T23:03:52.423Z,99.00
2023-02-19T23:06:24.857Z,99.20
2023-02-19T23:08:53.444Z,99.10
2023-02-19T23:11:23.415Z,99.60
2023-02-19T23:13:50.988Z,99.40
2023-02-19T23:16:18.748Z,99.50
2023-02-19T23:18:46.211Z,99.90
2023-02-19T23:21:13.556Z,99.90
2023-02-19T23:23:44.854Z,99.90
2023-02-19T23:26:13.526Z,99.90
2023-02-19T23:28:41.708Z,99.90
2023-02-19T23:31:09.736Z,99.90
2023-02-19T23:33:37.019Z,99.90
2023-02-19T23:36:04.777Z,99.90
2023-02-19T23:38:32.049Z,99.90
2023-02-19T23:40:59.451Z,99.90
2023-02-19T23:43:26.873Z,99.90
2023-02-19T23:45:54.177Z,99.90
2023-02-19T23:48:21.465Z,99.90
2023-02-19T23:50:48.744Z,99.90
2023-02-19T23:53:15.985Z,99.90
2023-02-19T23:55:43.159Z,99.90
2023-02-19T23:58:10.354Z,99.90
